sensor_id;sensor_type;location;lat;lon;timestamp;temperature;humidity
45983;DHT22;31711;47.158;7.346;2022-11-11T00:00:47;7.80;99.90
45983;DHT22;31711;47.158;7.346;2022-11-11T00:03:14;7.70;99.90
45983;DHT22;31711;47.158;7.346;2022-11-11T00:05:40;7.70;99.90
45983;DHT22;31711;47.158;7.346;2022-11-11T00:08:06;7.70;99.90
45983;DHT22;31711;47.158;7.346;2022-11-11T00:10:32;7.70;99.90
45983;DHT22;31711;47.158;7.346;2022-11-11T00:12:59;7.70;99.90
45983;DHT22;31711;47.158;7.346;2022-11-11T00:15:27;7.60;99.90
45983;DHT22;31711;47.158;7.346;2022-11-11T00:17:53;7.60;99.90
45983;DHT22;31711;47.158;7.346;2022-11-11T00:20:57;7.50;99.90
45983;DHT22;31711;47.158;7.346;2022-11-11T00:23:41;7.40;99.90
45983;DHT22;31711;47.158;7.346;2022-11-11T00:26:26;7.40;99.90
45983;DHT22;31711;47.158;7.346;2022-11-11T00:28:53;7.40;99.90
45983;DHT22;31711;47.158;7.346;2022-11-11T00:31:19;7.30;99.90
45983;DHT22;31711;47.158;7.346;2022-11-11T00:33:45;7.30;99.90
45983;DHT22;31711;47.158;7.346;2022-11-11T00:36:11;7.30;99.90
45983;DHT22;31711;47.158;7.346;2022-11-11T00:38:37;7.30;99.90
45983;DHT22;31711;47.158;7.346;2022-11-11T00:41:17;7.30;99.90
45983;DHT22;31711;47.158;7.346;2022-11-11T00:43:44;7.20;99.90
45983;DHT22;31711;47.158;7.346;2022-11-11T00:46:10;7.20;99.90
45983;DHT22;31711;47.158;7.346;2022-11-11T00:48:55;7.20;99.90
45983;DHT22;31711;47.158;7.346;2022-11-11T00:51:40;7.10;99.90
45983;DHT22;31711;47.158;7.346;2022-11-11T00:54:07;7.10;99.90
45983;DHT22;31711;47.158;7.346;2022-11-11T00:56:33;7.00;99.90
45983;DHT22;31711;47.158;7.346;2022-11-11T00:59:05;7.00;99.90
45983;DHT22;31711;47.158;7.346;2022-11-11T01:01:32;7.00;99.90
45983;DHT22;31711;47.158;7.346;2022-11-11T01:03:59;7.00;99.90
45983;DHT22;31711;47.158;7.346;2022-11-11T01:06:25;7.00;99.90
45983;DHT22;31711;47.158;7.346;2022-11-11T01:08:51;7.00;99.90
45983;DHT22;31711;47.158;7.346;2022-11-11T01:11:19;6.90;99.90
45983;DHT22;31711;47.158;7.346;2022-11-11T01:13:45;6.80;99.90
45983;DHT22;31711;47.158;7.346;2022-11-11T01:16:14;6.80;99.90
45983;DHT22;31711;47.158;7.346;2022-11-11T01:18:40;6.70;99.90
45983;DHT22;31711;47.158;7.346;2022-11-11T01:23:38;6.70;99.90
45983;DHT22;31711;47.158;7.346;2022-11-11T01:26:15;6.70;99.90
45983;DHT22;31711;47.158;7.346;2022-11-11T01:28:42;6.60;99.90
45983;DHT22;31711;47.158;7.346;2022-11-11T01:31:11;6.60;99.90
45983;DHT22;31711;47.158;7.346;2022-11-11T01:33:38;6.60;99.90
45983;DHT22;31711;47.158;7.346;2022-11-11T01:36:19;6.50;99.90
45983;DHT22;31711;47.158;7.346;2022-11-11T01:38:50;6.50;99.90
45983;DHT22;31711;47.158;7.346;2022-11-11T01:41:21;6.50;99.90
45983;DHT22;31711;47.158;7.346;2022-11-11T01:46:38;6.40;99.90
45983;DHT22;31711;47.158;7.346;2022-11-11T01:54:58;6.30;99.90
45983;DHT22;31711;47.158;7.346;2022-11-11T02:00:10;6.30;99.90
45983;DHT22;31711;47.158;7.346;2022-11-11T02:02:44;6.30;99.90
45983;DHT22;31711;47.158;7.346;2022-11-11T02:05:14;6.20;99.90
45983;DHT22;31711;47.158;7.346;2022-11-11T02:08:03;6.30;99.90
45983;DHT22;31711;47.158;7.346;2022-11-11T02:10:32;6.30;99.90
45983;DHT22;31711;47.158;7.346;2022-11-11T02:12:58;6.40;99.90
45983;DHT22;31711;47.158;7.346;2022-11-11T02:15:44;6.40;99.90
45983;DHT22;31711;47.158;7.346;2022-11-11T02:18:10;6.40;99.90
45983;DHT22;31711;47.158;7.346;2022-11-11T02:20:39;6.40;99.90
45983;DHT22;31711;47.158;7.346;2022-11-11T02:23:21;6.50;99.90
45983;DHT22;31711;47.158;7.346;2022-11-11T02:25:49;6.60;99.90
45983;DHT22;31711;47.158;7.346;2022-11-11T02:28:17;6.70;99.90
45983;DHT22;31711;47.158;7.346;2022-11-11T02:30:44;6.80;99.90
45983;DHT22;31711;47.158;7.346;2022-11-11T02:33:10;6.90;99.90
45983;DHT22;31711;47.158;7.346;2022-11-11T02:35:40;7.00;99.90
45983;DHT22;31711;47.158;7.346;2022-11-11T02:38:09;7.00;99.90
45983;DHT22;31711;47.158;7.346;2022-11-11T02:40:37;7.10;99.90
45983;DHT22;31711;47.158;7.346;2022-11-11T02:43:04;7.20;99.90
45983;DHT22;31711;47.158;7.346;2022-11-11T02:45:30;7.20;99.90
45983;DHT22;31711;47.158;7.346;2022-11-11T02:47:56;7.20;99.90
45983;DHT22;31711;47.158;7.346;2022-11-11T02:50:22;7.30;99.90
45983;DHT22;31711;47.158;7.346;2022-11-11T02:52:48;7.40;99.90
45983;DHT22;31711;47.158;7.346;2022-11-11T02:55:14;7.40;99.90
45983;DHT22;31711;47.158;7.346;2022-11-11T02:57:40;7.40;99.90
45983;DHT22;31711;47.158;7.346;2022-11-11T03:00:06;7.50;99.90
45983;DHT22;31711;47.158;7.346;2022-11-11T03:02:32;7.50;99.90
45983;DHT22;31711;47.158;7.346;2022-11-11T03:04:58;7.60;99.90
45983;DHT22;31711;47.158;7.346;2022-11-11T03:07:24;7.60;99.90
45983;DHT22;31711;47.158;7.346;2022-11-11T03:09:51;7.60;99.90
45983;DHT22;31711;47.158;7.346;2022-11-11T03:12:16;7.70;99.90
45983;DHT22;31711;47.158;7.346;2022-11-11T03:14:42;7.70;99.90
45983;DHT22;31711;47.158;7.346;2022-11-11T03:17:09;7.70;99.90
45983;DHT22;31711;47.158;7.346;2022-11-11T03:19:53;7.80;99.90
45983;DHT22;31711;47.158;7.346;2022-11-11T03:22:39;7.90;99.90
45983;DHT22;31711;47.158;7.346;2022-11-11T03:25:05;7.90;99.90
45983;DHT22;31711;47.158;7.346;2022-11-11T03:27:50;7.80;99.90
45983;DHT22;31711;47.158;7.346;2022-11-11T03:30:16;7.80;99.90
45983;DHT22;31711;47.158;7.346;2022-11-11T03:32:42;7.90;99.90
45983;DHT22;31711;47.158;7.346;2022-11-11T03:35:08;7.80;99.90
45983;DHT22;31711;47.158;7.346;2022-11-11T03:37:35;7.80;99.90
45983;DHT22;31711;47.158;7.346;2022-11-11T03:40:33;7.90;99.90
45983;DHT22;31711;47.158;7.346;2022-11-11T03:42:59;8.00;99.90
45983;DHT22;31711;47.158;7.346;2022-11-11T03:45:25;8.00;99.90
45983;DHT22;31711;47.158;7.346;2022-11-11T03:47:51;8.00;99.90
45983;DHT22;31711;47.158;7.346;2022-11-11T03:50:20;8.00;99.90
45983;DHT22;31711;47.158;7.346;2022-11-11T03:52:47;8.00;99.90
45983;DHT22;31711;47.158;7.346;2022-11-11T03:55:13;8.10;99.90
45983;DHT22;31711;47.158;7.346;2022-11-11T03:57:40;8.20;99.90
45983;DHT22;31711;47.158;7.346;2022-11-11T04:00:07;8.20;99.90
45983;DHT22;31711;47.158;7.346;2022-11-11T04:02:34;8.20;99.90
45983;DHT22;31711;47.158;7.346;2022-11-11T04:05:18;8.30;99.90
45983;DHT22;31711;47.158;7.346;2022-11-11T04:08:03;8.40;99.90
45983;DHT22;31711;47.158;7.346;2022-11-11T04:10:47;8.40;99.90
45983;DHT22;31711;47.158;7.346;2022-11-11T04:13:13;8.40;99.90
45983;DHT22;31711;47.158;7.346;2022-11-11T04:15:58;8.40;99.90
45983;DHT22;31711;47.158;7.346;2022-11-11T04:18:34;8.40;99.90
45983;DHT22;31711;47.158;7.346;2022-11-11T04:21:19;8.40;99.90
45983;DHT22;31711;47.158;7.346;2022-11-11T04:24:04;8.40;99.90
45983;DHT22;31711;47.158;7.346;2022-11-11T04:26:52;8.40;99.90
45983;DHT22;31711;47.158;7.346;2022-11-11T04:29:18;8.30;99.90
45983;DHT22;31711;47.158;7.346;2022-11-11T04:34:55;8.40;99.90
45983;DHT22;31711;47.158;7.346;2022-11-11T04:37:22;8.30;99.90
45983;DHT22;31711;47.158;7.346;2022-11-11T04:39:49;8.40;99.90
45983;DHT22;31711;47.158;7.346;2022-11-11T04:42:34;8.40;99.90
45983;DHT22;31711;47.158;7.346;2022-11-11T04:45:00;8.50;99.90
45983;DHT22;31711;47.158;7.346;2022-11-11T04:50:34;8.50;99.90
45983;DHT22;31711;47.158;7.346;2022-11-11T04:53:01;8.60;99.90
45983;DHT22;31711;47.158;7.346;2022-11-11T04:55:28;8.60;99.90
45983;DHT22;31711;47.158;7.346;2022-11-11T04:58:13;8.60;99.90
45983;DHT22;31711;47.158;7.346;2022-11-11T05:00:39;8.60;99.90
45983;DHT22;31711;47.158;7.346;2022-11-11T05:03:05;8.60;99.90
45983;DHT22;31711;47.158;7.346;2022-11-11T05:05:51;8.70;99.90
45983;DHT22;31711;47.158;7.346;2022-11-11T05:08:41;8.80;99.90
45983;DHT22;31711;47.158;7.346;2022-11-11T05:11:29;8.70;99.90
45983;DHT22;31711;47.158;7.346;2022-11-11T05:13:57;8.60;99.90
45983;DHT22;31711;47.158;7.346;2022-11-11T05:16:44;8.60;99.90
45983;DHT22;31711;47.158;7.346;2022-11-11T05:19:29;8.50;99.90
45983;DHT22;31711;47.158;7.346;2022-11-11T05:22:29;8.50;99.90
45983;DHT22;31711;47.158;7.346;2022-11-11T05:24:56;8.30;99.90
45983;DHT22;31711;47.158;7.346;2022-11-11T05:27:41;8.30;99.90
45983;DHT22;31711;47.158;7.346;2022-11-11T05:30:08;8.30;99.90
45983;DHT22;31711;47.158;7.346;2022-11-11T05:32:35;8.30;99.90
45983;DHT22;31711;47.158;7.346;2022-11-11T05:35:02;8.30;99.90
45983;DHT22;31711;47.158;7.346;2022-11-11T05:37:28;8.20;99.90
45983;DHT22;31711;47.158;7.346;2022-11-11T05:39:55;8.30;99.90
45983;DHT22;31711;47.158;7.346;2022-11-11T05:42:21;8.20;99.90
45983;DHT22;31711;47.158;7.346;2022-11-11T05:44:47;8.30;99.90
45983;DHT22;31711;47.158;7.346;2022-11-11T05:47:13;8.40;99.90
45983;DHT22;31711;47.158;7.346;2022-11-11T05:49:39;8.40;99.90
45983;DHT22;31711;47.158;7.346;2022-11-11T05:52:06;8.30;99.90
45983;DHT22;31711;47.158;7.346;2022-11-11T05:54:32;8.50;99.90
45983;DHT22;31711;47.158;7.346;2022-11-11T05:56:58;8.40;99.90
45983;DHT22;31711;47.158;7.346;2022-11-11T05:59:25;8.40;99.90
45983;DHT22;31711;47.158;7.346;2022-11-11T06:01:51;8.40;99.90
45983;DHT22;31711;47.158;7.346;2022-11-11T06:04:17;8.40;99.90
45983;DHT22;31711;47.158;7.346;2022-11-11T06:06:43;8.40;99.90
45983;DHT22;31711;47.158;7.346;2022-11-11T06:09:09;8.40;99.90
45983;DHT22;31711;47.158;7.346;2022-11-11T06:11:35;8.30;99.90
45983;DHT22;31711;47.158;7.346;2022-11-11T06:14:01;8.40;99.90
45983;DHT22;31711;47.158;7.346;2022-11-11T06:16:27;8.40;99.90
45983;DHT22;31711;47.158;7.346;2022-11-11T06:18:53;8.50;99.90
45983;DHT22;31711;47.158;7.346;2022-11-11T06:21:19;8.50;99.90
45983;DHT22;31711;47.158;7.346;2022-11-11T06:23:45;8.50;99.90
45983;DHT22;31711;47.158;7.346;2022-11-11T06:26:12;8.50;99.90
45983;DHT22;31711;47.158;7.346;2022-11-11T06:28:52;8.50;99.90
45983;DHT22;31711;47.158;7.346;2022-11-11T06:31:21;8.40;99.90
45983;DHT22;31711;47.158;7.346;2022-11-11T06:33:47;8.50;99.90
45983;DHT22;31711;47.158;7.346;2022-11-11T06:36:15;8.50;99.90
45983;DHT22;31711;47.158;7.346;2022-11-11T06:38:42;8.40;99.90
45983;DHT22;31711;47.158;7.346;2022-11-11T06:41:09;8.50;99.90
45983;DHT22;31711;47.158;7.346;2022-11-11T06:43:38;8.50;99.90
45983;DHT22;31711;47.158;7.346;2022-11-11T06:46:04;8.60;99.90
45983;DHT22;31711;47.158;7.346;2022-11-11T06:48:30;8.60;99.90
45983;DHT22;31711;47.158;7.346;2022-11-11T06:51:04;8.70;99.90
45983;DHT22;31711;47.158;7.346;2022-11-11T06:53:30;8.60;99.90
45983;DHT22;31711;47.158;7.346;2022-11-11T06:55:57;8.70;99.90
45983;DHT22;31711;47.158;7.346;2022-11-11T06:58:23;8.80;99.90
45983;DHT22;31711;47.158;7.346;2022-11-11T07:00:49;8.70;99.90
45983;DHT22;31711;47.158;7.346;2022-11-11T07:03:17;8.80;99.90
45983;DHT22;31711;47.158;7.346;2022-11-11T07:05:44;8.80;99.90
45983;DHT22;31711;47.158;7.346;2022-11-11T07:08:17;8.90;99.90
45983;DHT22;31711;47.158;7.346;2022-11-11T07:10:46;8.80;99.90
45983;DHT22;31711;47.158;7.346;2022-11-11T07:13:13;8.80;99.90
45983;DHT22;31711;47.158;7.346;2022-11-11T07:15:40;8.80;99.90
45983;DHT22;31711;47.158;7.346;2022-11-11T07:18:07;8.80;99.90
45983;DHT22;31711;47.158;7.346;2022-11-11T07:20:33;8.80;99.90
45983;DHT22;31711;47.158;7.346;2022-11-11T07:22:59;8.90;99.90
45983;DHT22;31711;47.158;7.346;2022-11-11T07:25:25;8.90;99.90
45983;DHT22;31711;47.158;7.346;2022-11-11T07:27:51;8.90;99.90
45983;DHT22;31711;47.158;7.346;2022-11-11T07:30:17;8.90;99.90
45983;DHT22;31711;47.158;7.346;2022-11-11T07:32:46;9.10;99.90
45983;DHT22;31711;47.158;7.346;2022-11-11T07:35:13;9.20;99.90
45983;DHT22;31711;47.158;7.346;2022-11-11T07:37:39;9.20;99.90
45983;DHT22;31711;47.158;7.346;2022-11-11T07:40:07;9.30;99.90
45983;DHT22;31711;47.158;7.346;2022-11-11T07:42:40;9.40;99.90
45983;DHT22;31711;47.158;7.346;2022-11-11T07:45:07;9.40;99.90
45983;DHT22;31711;47.158;7.346;2022-11-11T07:47:34;9.50;99.90
45983;DHT22;31711;47.158;7.346;2022-11-11T07:50:01;9.50;99.90
45983;DHT22;31711;47.158;7.346;2022-11-11T07:52:27;9.50;99.90
45983;DHT22;31711;47.158;7.346;2022-11-11T07:54:53;9.60;99.90
45983;DHT22;31711;47.158;7.346;2022-11-11T07:57:19;9.70;99.90
45983;DHT22;31711;47.158;7.346;2022-11-11T07:59:45;9.50;99.90
45983;DHT22;31711;47.158;7.346;2022-11-11T08:02:12;9.50;99.90
45983;DHT22;31711;47.158;7.346;2022-11-11T08:04:39;9.60;99.90
45983;DHT22;31711;47.158;7.346;2022-11-11T08:07:05;9.50;99.90
45983;DHT22;31711;47.158;7.346;2022-11-11T08:09:31;9.40;99.90
45983;DHT22;31711;47.158;7.346;2022-11-11T08:11:57;9.50;99.90
45983;DHT22;31711;47.158;7.346;2022-11-11T08:14:41;9.50;99.90
45983;DHT22;31711;47.158;7.346;2022-11-11T08:17:07;9.60;99.90
45983;DHT22;31711;47.158;7.346;2022-11-11T08:19:33;9.50;99.90
45983;DHT22;31711;47.158;7.346;2022-11-11T08:21:59;9.60;99.90
45983;DHT22;31711;47.158;7.346;2022-11-11T08:24:25;9.70;99.90
45983;DHT22;31711;47.158;7.346;2022-11-11T08:26:51;9.50;99.90
45983;DHT22;31711;47.158;7.346;2022-11-11T08:29:18;9.60;99.90
45983;DHT22;31711;47.158;7.346;2022-11-11T08:31:45;9.50;99.90
45983;DHT22;31711;47.158;7.346;2022-11-11T08:34:11;9.50;99.90
45983;DHT22;31711;47.158;7.346;2022-11-11T08:36:37;9.60;99.90
45983;DHT22;31711;47.158;7.346;2022-11-11T08:39:04;9.70;99.90
45983;DHT22;31711;47.158;7.346;2022-11-11T08:41:30;9.80;99.90
45983;DHT22;31711;47.158;7.346;2022-11-11T08:43:56;9.70;99.90
45983;DHT22;31711;47.158;7.346;2022-11-11T08:46:24;9.70;99.90
45983;DHT22;31711;47.158;7.346;2022-11-11T08:48:51;9.60;99.90
45983;DHT22;31711;47.158;7.346;2022-11-11T08:51:17;9.50;99.90
45983;DHT22;31711;47.158;7.346;2022-11-11T08:53:43;9.60;99.90
45983;DHT22;31711;47.158;7.346;2022-11-11T08:56:09;9.70;99.90
45983;DHT22;31711;47.158;7.346;2022-11-11T08:58:37;9.70;99.90
45983;DHT22;31711;47.158;7.346;2022-11-11T09:01:03;9.80;99.90
45983;DHT22;31711;47.158;7.346;2022-11-11T09:03:29;9.90;99.90
45983;DHT22;31711;47.158;7.346;2022-11-11T09:05:55;10.00;99.90
45983;DHT22;31711;47.158;7.346;2022-11-11T09:08:21;10.10;99.90
45983;DHT22;31711;47.158;7.346;2022-11-11T09:10:47;10.30;99.90
45983;DHT22;31711;47.158;7.346;2022-11-11T09:13:13;10.40;99.90
45983;DHT22;31711;47.158;7.346;2022-11-11T09:15:39;10.60;99.90
45983;DHT22;31711;47.158;7.346;2022-11-11T09:18:05;10.50;99.90
45983;DHT22;31711;47.158;7.346;2022-11-11T09:20:31;10.50;99.90
45983;DHT22;31711;47.158;7.346;2022-11-11T09:22:57;10.60;99.90
45983;DHT22;31711;47.158;7.346;2022-11-11T09:25:23;10.50;99.90
45983;DHT22;31711;47.158;7.346;2022-11-11T09:27:56;10.20;99.90
45983;DHT22;31711;47.158;7.346;2022-11-11T09:30:24;10.20;99.90
45983;DHT22;31711;47.158;7.346;2022-11-11T09:32:50;10.10;99.90
45983;DHT22;31711;47.158;7.346;2022-11-11T09:35:17;10.20;99.90
45983;DHT22;31711;47.158;7.346;2022-11-11T09:37:52;10.10;99.90
45983;DHT22;31711;47.158;7.346;2022-11-11T09:40:21;10.30;99.90
45983;DHT22;31711;47.158;7.346;2022-11-11T09:45:48;10.30;99.90
45983;DHT22;31711;47.158;7.346;2022-11-11T09:51:19;10.20;99.90
45983;DHT22;31711;47.158;7.346;2022-11-11T09:53:52;10.40;99.90
45983;DHT22;31711;47.158;7.346;2022-11-11T09:56:22;10.50;99.90
45983;DHT22;31711;47.158;7.346;2022-11-11T09:58:52;10.70;99.90
45983;DHT22;31711;47.158;7.346;2022-11-11T10:01:27;10.70;99.90
45983;DHT22;31711;47.158;7.346;2022-11-11T10:03:59;10.70;99.90
45983;DHT22;31711;47.158;7.346;2022-11-11T10:06:30;10.70;99.90
45983;DHT22;31711;47.158;7.346;2022-11-11T10:09:17;10.70;99.90
45983;DHT22;31711;47.158;7.346;2022-11-11T10:14:32;10.80;99.90
45983;DHT22;31711;47.158;7.346;2022-11-11T10:20:27;11.20;99.90
45983;DHT22;31711;47.158;7.346;2022-11-11T10:23:14;11.00;99.90
45983;DHT22;31711;47.158;7.346;2022-11-11T10:25:48;11.00;99.90
45983;DHT22;31711;47.158;7.346;2022-11-11T10:28:19;11.20;99.90
45983;DHT22;31711;47.158;7.346;2022-11-11T10:30:47;11.40;99.90
45983;DHT22;31711;47.158;7.346;2022-11-11T10:33:18;11.30;99.90
45983;DHT22;31711;47.158;7.346;2022-11-11T10:35:48;11.00;99.90
45983;DHT22;31711;47.158;7.346;2022-11-11T10:38:18;11.10;99.90
45983;DHT22;31711;47.158;7.346;2022-11-11T10:40:52;11.20;99.90
45983;DHT22;31711;47.158;7.346;2022-11-11T10:43:23;11.40;99.90
45983;DHT22;31711;47.158;7.346;2022-11-11T10:49:02;11.50;99.90
45983;DHT22;31711;47.158;7.346;2022-11-11T10:51:49;11.60;99.90
45983;DHT22;31711;47.158;7.346;2022-11-11T10:54:24;11.50;99.90
45983;DHT22;31711;47.158;7.346;2022-11-11T10:57:08;11.60;99.90
45983;DHT22;31711;47.158;7.346;2022-11-11T11:02:38;11.60;99.90
45983;DHT22;31711;47.158;7.346;2022-11-11T11:05:35;11.60;99.90
45983;DHT22;31711;47.158;7.346;2022-11-11T11:08:16;11.70;99.90
45983;DHT22;31711;47.158;7.346;2022-11-11T11:10:48;11.90;99.90
45983;DHT22;31711;47.158;7.346;2022-11-11T11:13:41;12.10;99.90
45983;DHT22;31711;47.158;7.346;2022-11-11T11:16:15;11.70;99.90
45983;DHT22;31711;47.158;7.346;2022-11-11T11:18:42;11.50;99.90
45983;DHT22;31711;47.158;7.346;2022-11-11T11:21:09;11.60;99.90
45983;DHT22;31711;47.158;7.346;2022-11-11T11:23:43;11.80;99.90
45983;DHT22;31711;47.158;7.346;2022-11-11T11:26:12;11.70;99.90
45983;DHT22;31711;47.158;7.346;2022-11-11T11:28:58;11.80;99.90
45983;DHT22;31711;47.158;7.346;2022-11-11T11:31:35;11.90;99.90
45983;DHT22;31711;47.158;7.346;2022-11-11T11:34:02;11.80;99.90
45983;DHT22;31711;47.158;7.346;2022-11-11T11:36:29;11.80;99.90
45983;DHT22;31711;47.158;7.346;2022-11-11T11:38:55;11.80;99.90
45983;DHT22;31711;47.158;7.346;2022-11-11T11:41:39;12.00;99.90
45983;DHT22;31711;47.158;7.346;2022-11-11T11:44:36;12.10;99.90
45983;DHT22;31711;47.158;7.346;2022-11-11T11:49:59;12.00;99.90
45983;DHT22;31711;47.158;7.346;2022-11-11T11:55:19;12.40;99.90
45983;DHT22;31711;47.158;7.346;2022-11-11T11:57:59;12.50;99.90
45983;DHT22;31711;47.158;7.346;2022-11-11T12:00:30;12.50;99.90
45983;DHT22;31711;47.158;7.346;2022-11-11T12:06:13;12.80;99.90
45983;DHT22;31711;47.158;7.346;2022-11-11T12:14:43;13.30;99.90
45983;DHT22;31711;47.158;7.346;2022-11-11T12:20:38;13.10;99.90
45983;DHT22;31711;47.158;7.346;2022-11-11T12:23:39;13.10;99.90
45983;DHT22;31711;47.158;7.346;2022-11-11T12:26:17;12.90;99.90
45983;DHT22;31711;47.158;7.346;2022-11-11T12:28:51;12.90;99.90
45983;DHT22;31711;47.158;7.346;2022-11-11T12:45:17;12.50;99.90
45983;DHT22;31711;47.158;7.346;2022-11-11T12:50:59;12.50;99.90
45983;DHT22;31711;47.158;7.346;2022-11-11T13:04:21;12.90;99.90
45983;DHT22;31711;47.158;7.346;2022-11-11T13:13:17;13.40;99.90
45983;DHT22;31711;47.158;7.346;2022-11-11T13:15:48;13.30;99.90
45983;DHT22;31711;47.158;7.346;2022-11-11T13:18:19;12.90;99.90
45983;DHT22;31711;47.158;7.346;2022-11-11T13:20:59;12.90;99.90
45983;DHT22;31711;47.158;7.346;2022-11-11T13:23:26;12.90;99.90
45983;DHT22;31711;47.158;7.346;2022-11-11T13:25:59;12.70;99.90
45983;DHT22;31711;47.158;7.346;2022-11-11T13:28:33;12.70;99.90
45983;DHT22;31711;47.158;7.346;2022-11-11T13:34:03;12.90;99.90
45983;DHT22;31711;47.158;7.346;2022-11-11T13:36:41;12.90;99.90
45983;DHT22;31711;47.158;7.346;2022-11-11T13:39:25;12.80;99.90
45983;DHT22;31711;47.158;7.346;2022-11-11T13:41:55;12.90;99.90
45983;DHT22;31711;47.158;7.346;2022-11-11T13:44:35;13.00;99.90
45983;DHT22;31711;47.158;7.346;2022-11-11T13:47:06;13.10;99.90
45983;DHT22;31711;47.158;7.346;2022-11-11T13:49:58;13.10;99.90
45983;DHT22;31711;47.158;7.346;2022-11-11T13:52:35;13.20;99.90
45983;DHT22;31711;47.158;7.346;2022-11-11T13:55:06;13.20;99.90
45983;DHT22;31711;47.158;7.346;2022-11-11T13:57:33;13.00;99.90
45983;DHT22;31711;47.158;7.346;2022-11-11T14:02:46;12.90;99.90
45983;DHT22;31711;47.158;7.346;2022-11-11T14:05:14;12.90;99.90
45983;DHT22;31711;47.158;7.346;2022-11-11T14:10:40;12.60;99.90
45983;DHT22;31711;47.158;7.346;2022-11-11T14:12:56;12.50;99.90
45983;DHT22;31711;47.158;7.346;2022-11-11T14:15:49;12.50;99.90
45983;DHT22;31711;47.158;7.346;2022-11-11T14:20:48;12.30;99.90
45983;DHT22;31711;47.158;7.346;2022-11-11T14:25:51;12.10;99.90
45983;DHT22;31711;47.158;7.346;2022-11-11T14:36:18;11.90;99.90
45983;DHT22;31711;47.158;7.346;2022-11-11T14:55:20;11.50;99.90
45983;DHT22;31711;47.158;7.346;2022-11-11T14:58:17;11.40;99.90
45983;DHT22;31711;47.158;7.346;2022-11-11T15:03:50;11.30;99.90
45983;DHT22;31711;47.158;7.346;2022-11-11T15:09:05;11.10;99.90
45983;DHT22;31711;47.158;7.346;2022-11-11T15:12:11;11.20;99.90
45983;DHT22;31711;47.158;7.346;2022-11-11T15:23:37;10.90;99.90
45983;DHT22;31711;47.158;7.346;2022-11-11T15:29:11;10.70;99.90
45983;DHT22;31711;47.158;7.346;2022-11-11T15:32:01;10.60;99.90
45983;DHT22;31711;47.158;7.346;2022-11-11T15:34:41;10.60;99.90
45983;DHT22;31711;47.158;7.346;2022-11-11T15:37:14;10.60;99.90
45983;DHT22;31711;47.158;7.346;2022-11-11T15:39:47;10.40;99.90
45983;DHT22;31711;47.158;7.346;2022-11-11T15:44:50;10.20;99.90
45983;DHT22;31711;47.158;7.346;2022-11-11T15:47:18;10.20;99.90
45983;DHT22;31711;47.158;7.346;2022-11-11T15:49:46;10.10;99.90
45983;DHT22;31711;47.158;7.346;2022-11-11T15:54:51;10.10;99.90
45983;DHT22;31711;47.158;7.346;2022-11-11T15:57:29;10.00;99.90
45983;DHT22;31711;47.158;7.346;2022-11-11T15:59:57;10.00;99.90
45983;DHT22;31711;47.158;7.346;2022-11-11T16:02:25;9.90;99.90
45983;DHT22;31711;47.158;7.346;2022-11-11T16:07:30;9.70;99.90
45983;DHT22;31711;47.158;7.346;2022-11-11T16:10:07;9.60;99.90
45983;DHT22;31711;47.158;7.346;2022-11-11T16:12:45;9.60;99.90
45983;DHT22;31711;47.158;7.346;2022-11-11T16:18:09;9.40;99.90
45983;DHT22;31711;47.158;7.346;2022-11-11T16:23:19;9.30;99.90
45983;DHT22;31711;47.158;7.346;2022-11-11T16:25:47;9.10;99.90
45983;DHT22;31711;47.158;7.346;2022-11-11T16:28:14;9.10;99.90
45983;DHT22;31711;47.158;7.346;2022-11-11T16:30:40;9.00;99.90
45983;DHT22;31711;47.158;7.346;2022-11-11T16:33:32;9.00;99.90
45983;DHT22;31711;47.158;7.346;2022-11-11T16:36:09;9.00;99.90
45983;DHT22;31711;47.158;7.346;2022-11-11T16:38:36;9.00;99.90
45983;DHT22;31711;47.158;7.346;2022-11-11T16:41:29;8.90;99.90
45983;DHT22;31711;47.158;7.346;2022-11-11T16:43:58;8.90;99.90
45983;DHT22;31711;47.158;7.346;2022-11-11T16:49:37;8.80;99.90
45983;DHT22;31711;47.158;7.346;2022-11-11T16:52:13;8.70;99.90
45983;DHT22;31711;47.158;7.346;2022-11-11T16:54:49;8.60;99.90
45983;DHT22;31711;47.158;7.346;2022-11-11T16:57:18;8.60;99.90
45983;DHT22;31711;47.158;7.346;2022-11-11T16:59:49;8.60;99.90
45983;DHT22;31711;47.158;7.346;2022-11-11T17:02:21;8.60;99.90
45983;DHT22;31711;47.158;7.346;2022-11-11T17:04:55;8.50;99.90
45983;DHT22;31711;47.158;7.346;2022-11-11T17:07:29;8.50;99.90
45983;DHT22;31711;47.158;7.346;2022-11-11T17:10:19;8.50;99.90
45983;DHT22;31711;47.158;7.346;2022-11-11T17:12:46;8.30;99.90
45983;DHT22;31711;47.158;7.346;2022-11-11T17:15:14;8.30;99.90
45983;DHT22;31711;47.158;7.346;2022-11-11T17:17:42;8.30;99.90
45983;DHT22;31711;47.158;7.346;2022-11-11T17:22:51;8.20;99.90
45983;DHT22;31711;47.158;7.346;2022-11-11T17:25:17;8.20;99.90
45983;DHT22;31711;47.158;7.346;2022-11-11T17:27:44;8.10;99.90
45983;DHT22;31711;47.158;7.346;2022-11-11T17:30:11;8.10;99.90
45983;DHT22;31711;47.158;7.346;2022-11-11T17:32:38;8.10;99.90
45983;DHT22;31711;47.158;7.346;2022-11-11T17:35:04;8.10;99.90
45983;DHT22;31711;47.158;7.346;2022-11-11T17:37:36;8.00;99.90
45983;DHT22;31711;47.158;7.346;2022-11-11T17:40:07;8.00;99.90
45983;DHT22;31711;47.158;7.346;2022-11-11T17:42:34;7.90;99.90
45983;DHT22;31711;47.158;7.346;2022-11-11T17:45:01;7.90;99.90
45983;DHT22;31711;47.158;7.346;2022-11-11T17:47:27;7.90;99.90
45983;DHT22;31711;47.158;7.346;2022-11-11T17:49:53;7.90;99.90
45983;DHT22;31711;47.158;7.346;2022-11-11T17:52:19;7.80;99.90
45983;DHT22;31711;47.158;7.346;2022-11-11T17:54:45;7.80;99.90
45983;DHT22;31711;47.158;7.346;2022-11-11T17:57:11;7.70;99.90
45983;DHT22;31711;47.158;7.346;2022-11-11T17:59:37;7.70;99.90
45983;DHT22;31711;47.158;7.346;2022-11-11T18:02:03;7.60;99.90
45983;DHT22;31711;47.158;7.346;2022-11-11T18:04:30;7.60;99.90
45983;DHT22;31711;47.158;7.346;2022-11-11T18:06:56;7.50;99.90
45983;DHT22;31711;47.158;7.346;2022-11-11T18:09:22;7.50;99.90
45983;DHT22;31711;47.158;7.346;2022-11-11T18:11:47;7.50;99.90
45983;DHT22;31711;47.158;7.346;2022-11-11T18:14:13;7.40;99.90
45983;DHT22;31711;47.158;7.346;2022-11-11T18:16:43;7.40;99.90
45983;DHT22;31711;47.158;7.346;2022-11-11T18:19:09;7.40;99.90
45983;DHT22;31711;47.158;7.346;2022-11-11T18:21:35;7.40;99.90
45983;DHT22;31711;47.158;7.346;2022-11-11T18:24:05;7.30;99.90
45983;DHT22;31711;47.158;7.346;2022-11-11T18:26:31;7.20;99.90
45983;DHT22;31711;47.158;7.346;2022-11-11T18:28:57;7.20;99.90
45983;DHT22;31711;47.158;7.346;2022-11-11T18:31:23;7.10;99.90
45983;DHT22;31711;47.158;7.346;2022-11-11T18:33:49;7.20;99.90
45983;DHT22;31711;47.158;7.346;2022-11-11T18:36:17;7.20;99.90
45983;DHT22;31711;47.158;7.346;2022-11-11T18:38:44;7.20;99.90
45983;DHT22;31711;47.158;7.346;2022-11-11T18:41:12;7.20;99.90
45983;DHT22;31711;47.158;7.346;2022-11-11T18:43:42;7.20;99.90
45983;DHT22;31711;47.158;7.346;2022-11-11T18:46:11;7.10;99.90
45983;DHT22;31711;47.158;7.346;2022-11-11T18:48:38;7.10;99.90
45983;DHT22;31711;47.158;7.346;2022-11-11T18:51:05;7.10;99.90